Time;durP1;ratioP1;P1;durP2;ratioP2;P2;SDS_P1;SDS_P2;PMS_P1;PMS_P2;Temp;Humidity;BMP_temperature;BMP_pressure;BME280_temperature;BME280_humidity;BME280_pressure;Samples;Min_cycle;Max_cycle;Signal;HPM_P1;HPM_P2
2024/01/19 00:01:29;;;;;;;21.37;20.27;;;;;;;-1.05;100.00;100445.16;4932829;28;20460;-36
2024/01/19 00:03:58;;;;;;;22.00;20.90;;;;;;;-1.06;100.00;100444.34;4934497;29;20465;-40
2024/01/19 00:06:27;;;;;;;22.30;20.70;;;;;;;-1.06;100.00;100444.34;4934942;29;20504;-37
2024/01/19 00:08:55;;;;;;;22.13;21.10;;;;;;;-1.03;100.00;100449.31;4932167;29;20571;-37
2024/01/19 00:11:22;;;;;;;22.10;21.00;;;;;;;-1.02;100.00;100461.44;4933942;28;20480;-37
2024/01/19 00:13:50;;;;;;;22.03;20.80;;;;;;;-0.99;100.00;100460.34;4934121;29;21038;-37
2024/01/19 00:16:18;;;;;;;23.37;21.37;;;;;;;-0.92;100.00;100437.91;4933310;29;20445;-36
2024/01/19 00:18:45;;;;;;;22.83;21.47;;;;;;;-0.83;100.00;100437.97;4933958;29;20496;-39
2024/01/19 00:21:14;;;;;;;24.40;22.97;;;;;;;-0.73;100.00;100438.84;4931580;28;20486;-38
2024/01/19 00:23:43;;;;;;;22.13;21.10;;;;;;;-0.65;100.00;100443.41;4932986;29;20463;-37
2024/01/19 00:26:11;;;;;;;21.73;20.83;;;;;;;-0.59;100.00;100440.25;4933395;29;20440;-39
2024/01/19 00:28:38;;;;;;;22.87;21.27;;;;;;;-0.56;100.00;100447.84;4933575;29;20477;-36
2024/01/19 00:31:06;;;;;;;23.50;21.70;;;;;;;-0.53;100.00;100447.59;4931359;28;20520;-36
2024/01/19 00:33:34;;;;;;;22.23;21.03;;;;;;;-0.52;100.00;100457.13;4932894;29;20508;-36
2024/01/19 00:36:02;;;;;;;22.60;21.20;;;;;;;-0.49;100.00;100453.41;4933143;29;20437;-40
2024/01/19 00:38:30;;;;;;;22.47;21.37;;;;;;;-0.44;100.00;100462.50;4933491;29;20433;-36
2024/01/19 00:41:00;;;;;;;23.07;21.50;;;;;;;-0.39;100.00;100462.13;4932276;28;20439;-39
2024/01/19 00:43:28;;;;;;;22.57;21.20;;;;;;;-0.32;100.00;100452.75;4932577;29;20468;-39
2024/01/19 00:45:55;;;;;;;23.23;21.53;;;;;;;-0.27;100.00;100472.34;4932904;29;20436;-41
2024/01/19 00:48:23;;;;;;;21.70;20.80;;;;;;;-0.20;100.00;100468.22;4933050;29;20476;-37
2024/01/19 00:50:51;;;;;;;22.70;21.60;;;;;;;-0.14;100.00;100486.03;4933010;28;20491;-39
2024/01/19 00:53:19;;;;;;;21.90;20.90;;;;;;;-0.06;100.00;100501.91;4935736;29;20499;-40
2024/01/19 00:55:47;;;;;;;23.20;21.63;;;;;;;-0.01;100.00;100498.91;4933614;29;20542;-39
2024/01/19 00:58:16;;;;;;;23.27;21.93;;;;;;;0.05;100.00;100501.00;4933723;29;20496;-38
2024/01/19 01:00:44;;;;;;;22.73;21.43;;;;;;;0.11;100.00;100508.31;4931924;29;20523;-37
2024/01/19 01:03:12;;;;;;;23.07;21.33;;;;;;;0.14;100.00;100504.59;4933853;28;20465;-40
2024/01/19 01:05:39;;;;;;;23.37;21.93;;;;;;;0.18;100.00;100511.22;4933392;29;20837;-40
2024/01/19 01:08:07;;;;;;;22.33;20.57;;;;;;;0.19;100.00;100484.84;4931797;29;20999;-39
2024/01/19 01:10:35;;;;;;;21.87;20.40;;;;;;;0.24;100.00;100481.84;4932454;29;20440;-39
2024/01/19 01:13:03;;;;;;;20.90;19.80;;;;;;;0.21;100.00;100476.88;4932385;28;21353;-39
2024/01/19 01:15:32;;;;;;;21.57;20.40;;;;;;;0.15;100.00;100469.56;4932274;29;20433;-41
2024/01/19 01:18:00;;;;;;;22.13;21.20;;;;;;;0.13;100.00;100477.53;4933362;29;20448;-42
2024/01/19 01:20:28;;;;;;;21.50;20.40;;;;;;;0.08;100.00;100484.16;4932766;29;20445;-37
2024/01/19 01:22:56;;;;;;;23.03;21.90;;;;;;;0.02;100.00;100480.28;4931164;28;20468;-40
2024/01/19 01:25:24;;;;;;;23.60;22.40;;;;;;;-0.09;100.00;100489.06;4931658;29;20488;-37
2024/01/19 01:27:51;;;;;;;23.20;22.20;;;;;;;-0.13;100.00;100486.88;4932742;29;20441;-37
2024/01/19 01:30:19;;;;;;;23.03;21.77;;;;;;;-0.13;100.00;100511.31;4932957;29;20475;-35
2024/01/19 01:32:48;;;;;;;22.87;21.73;;;;;;;-0.12;100.00;100502.44;4931995;28;20547;-40
2024/01/19 01:35:16;;;;;;;22.50;21.40;;;;;;;-0.09;100.00;100504.00;4931487;29;20436;-38
2024/01/19 01:37:44;;;;;;;22.57;21.23;;;;;;;-0.05;100.00;100492.25;4931235;29;21176;-40
2024/01/19 01:40:12;;;;;;;22.97;21.53;;;;;;;-0.02;100.00;100497.25;4925619;29;20581;-37
2024/01/19 01:42:40;;;;;;;21.20;19.93;;;;;;;0.01;100.00;100507.47;4931277;28;20472;-39
2024/01/19 01:45:09;;;;;;;20.60;19.70;;;;;;;0.04;100.00;100503.72;4933328;29;20487;-39
2024/01/19 01:47:36;;;;;;;20.87;19.97;;;;;;;0.04;100.00;100480.13;4931659;29;20513;-37
2024/01/19 01:50:07;;;;;;;20.67;19.30;;;;;;;0.05;100.00;100472.16;4931413;29;20959;-39
2024/01/19 01:52:35;;;;;;;21.70;20.60;;;;;;;-0.01;100.00;100478.78;4931902;28;20468;-39
2024/01/19 01:55:03;;;;;;;21.83;20.40;;;;;;;-0.05;100.00;100482.63;4932276;29;20436;-40
2024/01/19 01:57:31;;;;;;;20.77;19.80;;;;;;;-0.12;100.00;100497.22;4932018;29;20529;-39
2024/01/19 01:59:59;;;;;;;20.37;19.47;;;;;;;-0.18;100.00;100505.59;4932192;29;20967;-39
2024/01/19 02:02:27;;;;;;;21.70;20.63;;;;;;;-0.26;100.00;100499.38;4931677;28;20551;-42
2024/01/19 02:04:54;;;;;;;21.53;20.30;;;;;;;-0.32;100.00;100502.53;4931279;29;20448;-37
2024/01/19 02:07:23;;;;;;;21.23;20.33;;;;;;;-0.40;100.00;100502.38;4931299;29;20424;-37
2024/01/19 02:09:51;;;;;;;21.80;20.90;;;;;;;-0.43;100.00;100507.88;4930292;29;20861;-36
2024/01/19 02:12:18;;;;;;;22.10;21.20;;;;;;;-0.50;100.00;100514.59;4930183;28;20464;-35
2024/01/19 02:14:46;;;;;;;22.23;21.10;;;;;;;-0.51;100.00;100513.78;4931084;29;20841;-38
2024/01/19 02:17:14;;;;;;;22.67;21.40;;;;;;;-0.56;100.00;100508.09;4924332;29;21272;-36
2024/01/19 02:19:42;;;;;;;22.10;20.90;;;;;;;-0.62;100.00;100519.09;4930812;29;20429;-37
2024/01/19 02:22:10;;;;;;;22.80;21.60;;;;;;;-0.65;100.00;100521.97;4931368;28;20465;-37
2024/01/19 02:24:40;;;;;;;22.30;21.10;;;;;;;-0.69;100.00;100523.22;4932829;29;20480;-39
2024/01/19 02:27:08;;;;;;;21.80;20.70;;;;;;;-0.77;100.00;100518.59;4930873;29;20440;-40
2024/01/19 02:29:36;;;;;;;22.77;21.03;;;;;;;-0.81;100.00;100519.84;4930450;29;20547;-37
2024/01/19 02:32:04;;;;;;;23.80;22.27;;;;;;;-0.91;100.00;100518.94;4931023;28;20468;-39
2024/01/19 02:34:31;;;;;;;21.70;20.33;;;;;;;-0.94;100.00;100521.81;4931795;29;20453;-37
2024/01/19 02:36:59;;;;;;;23.30;22.10;;;;;;;-0.98;100.00;100528.25;4930258;29;20440;-36
2024/01/19 02:39:27;;;;;;;23.27;21.83;;;;;;;-1.00;100.00;100526.72;4933086;29;20942;-39
2024/01/19 02:41:56;;;;;;;23.83;22.30;;;;;;;-1.03;100.00;100525.19;4932733;28;20540;-41
2024/01/19 02:44:23;;;;;;;23.40;22.13;;;;;;;-1.03;100.00;100522.59;4932109;29;20461;-41
2024/01/19 02:46:51;;;;;;;23.37;21.73;;;;;;;-0.99;100.00;100525.78;4932197;29;20446;-37
2024/01/19 02:49:19;;;;;;;23.57;21.90;;;;;;;-0.93;100.00;100533.97;4930887;29;20559;-37
2024/01/19 02:51:47;;;;;;;22.60;21.47;;;;;;;-0.85;100.00;100544.59;4929427;28;21088;-41
2024/01/19 02:54:14;;;;;;;22.57;21.10;;;;;;;-0.76;100.00;100553.47;4932800;29;20459;-37
2024/01/19 02:56:42;;;;;;;22.40;21.00;;;;;;;-0.68;100.00;100538.78;4935898;29;20447;-37
2024/01/19 02:59:11;;;;;;;21.23;20.07;;;;;;;-0.62;100.00;100537.41;4934871;29;22280;-37
2024/01/19 03:01:39;;;;;;;23.37;22.07;;;;;;;-0.60;100.00;100541.56;4933053;28;20936;-37
2024/01/19 03:04:07;;;;;;;22.10;21.00;;;;;;;-0.59;100.00;100540.63;4934110;29;20957;-37
2024/01/19 03:06:34;;;;;;;21.80;20.63;;;;;;;-0.55;100.00;100538.56;4926601;29;20885;-37
2024/01/19 03:09:02;;;;;;;22.23;21.13;;;;;;;-0.54;100.00;100539.41;4934832;29;20706;-37
2024/01/19 03:11:30;;;;;;;22.40;21.20;;;;;;;-0.56;100.00;100537.72;4934219;28;20467;-37
2024/01/19 03:13:58;;;;;;;22.73;21.10;;;;;;;-0.59;100.00;100527.53;4934898;29;20461;-37
2024/01/19 03:16:27;;;;;;;22.40;20.67;;;;;;;-0.64;100.00;100526.25;4935062;29;20527;-37
2024/01/19 03:18:55;;;;;;;22.00;20.90;;;;;;;-0.68;100.00;100530.91;4933867;29;20800;-37
2024/01/19 03:21:22;;;;;;;21.10;20.10;;;;;;;-0.67;100.00;100526.50;4934225;28;20460;-38
2024/01/19 03:23:50;;;;;;;20.90;19.60;;;;;;;-0.64;100.00;100529.72;4934157;29;20460;-37
2024/01/19 03:26:18;;;;;;;22.27;20.73;;;;;;;-0.62;100.00;100538.25;4933942;29;20869;-36
2024/01/19 03:28:46;;;;;;;22.00;20.63;;;;;;;-0.54;100.00;100534.16;4935167;29;20464;-37
2024/01/19 03:31:14;;;;;;;20.90;19.80;;;;;;;-0.54;100.00;100531.53;4932800;28;20469;-37
2024/01/19 03:33:43;;;;;;;21.77;20.47;;;;;;;-0.49;100.00;100538.06;4933894;29;20555;-39
2024/01/19 03:36:11;;;;;;;22.43;21.20;;;;;;;-0.46;100.00;100534.34;4933562;29;20509;-37
2024/01/19 03:38:39;;;;;;;23.37;21.40;;;;;;;-0.45;100.00;100520.28;4935005;29;20440;-37
2024/01/19 03:41:06;;;;;;;22.27;20.90;;;;;;;-0.49;100.00;100524.94;4932639;28;20433;-37
2024/01/19 03:43:34;;;;;;;21.07;20.00;;;;;;;-0.50;100.00;100519.81;4934004;29;20527;-37
2024/01/19 03:46:02;;;;;;;22.40;20.90;;;;;;;-0.53;100.00;100518.31;4934270;29;20880;-37
2024/01/19 03:48:30;;;;;;;23.20;21.33;;;;;;;-0.51;100.00;100523.44;4934440;29;20539;-38
2024/01/19 03:50:59;;;;;;;22.00;20.87;;;;;;;-0.46;100.00;100523.84;4933907;28;20851;-37
2024/01/19 03:53:27;;;;;;;22.13;20.73;;;;;;;-0.43;100.00;100520.97;4934033;29;20460;-37
2024/01/19 03:55:54;;;;;;;22.80;20.80;;;;;;;-0.38;100.00;100524.84;4932332;29;20440;-37
2024/01/19 03:58:22;;;;;;;23.27;20.83;;;;;;;-0.32;100.00;100541.84;4933595;29;20443;-37
2024/01/19 04:00:50;;;;;;;22.87;21.27;;;;;;;-0.29;100.00;100537.16;4933569;29;20947;-37
2024/01/19 04:03:19;;;;;;;22.17;20.60;;;;;;;-0.26;100.00;100550.00;4931998;29;20456;-37
2024/01/19 04:05:47;;;;;;;21.90;20.80;;;;;;;-0.24;100.00;100549.88;4932263;29;20801;-37
2024/01/19 04:08:17;;;;;;;21.20;20.10;;;;;;;-0.25;100.00;100561.31;4932166;29;20816;-37
2024/01/19 04:10:44;;;;;;;21.90;20.30;;;;;;;-0.25;100.00;100563.94;4932068;29;20527;-37
2024/01/19 04:13:12;;;;;;;21.47;20.33;;;;;;;-0.25;100.00;100575.25;4931914;28;21013;-37
2024/01/19 04:15:40;;;;;;;22.43;21.33;;;;;;;-0.26;100.00;100575.38;4932007;29;20953;-37
2024/01/19 04:18:07;;;;;;;24.00;22.50;;;;;;;-0.26;100.00;100583.22;4932382;29;20436;-36
2024/01/19 04:20:36;;;;;;;22.70;21.50;;;;;;;-0.32;100.00;100589.00;4932094;29;20900;-38
2024/01/19 04:23:04;;;;;;;22.37;21.00;;;;;;;-0.37;100.00;100588.56;4931539;28;20465;-38
2024/01/19 04:25:33;;;;;;;22.97;21.60;;;;;;;-0.46;100.00;100589.34;4933670;29;20480;-37
2024/01/19 04:28:00;;;;;;;23.73;22.03;;;;;;;-0.55;100.00;100590.94;4934573;29;20527;-37
2024/01/19 04:30:28;;;;;;;24.43;22.70;;;;;;;-0.61;100.00;100599.31;4931655;29;20519;-37
2024/01/19 04:32:56;;;;;;;23.07;21.60;;;;;;;-0.66;100.00;100597.06;4931151;28;20744;-37
2024/01/19 04:35:24;;;;;;;22.40;21.07;;;;;;;-0.74;100.00;100598.69;4931852;29;20447;-37
2024/01/19 04:37:51;;;;;;;22.07;20.90;;;;;;;-0.81;100.00;100608.84;4932447;29;20904;-37
2024/01/19 04:40:19;;;;;;;22.43;20.90;;;;;;;-0.87;100.00;100608.53;4932563;29;20429;-44
2024/01/19 04:42:47;;;;;;;23.03;21.73;;;;;;;-0.95;100.00;100614.38;4931051;28;20936;-37
2024/01/19 04:45:15;;;;;;;22.40;21.20;;;;;;;-1.04;100.00;100612.50;4931855;29;21529;-37
2024/01/19 04:47:43;;;;;;;25.03;22.40;;;;;;;-1.06;100.00;100619.66;4931695;29;20453;-38
2024/01/19 04:50:11;;;;;;;25.00;23.00;;;;;;;-1.05;100.00;100625.75;4931756;29;20477;-37
2024/01/19 04:52:38;;;;;;;22.93;21.60;;;;;;;-0.98;100.00;100643.41;4931177;28;20552;-36
2024/01/19 04:55:07;;;;;;;23.70;22.20;;;;;;;-0.93;100.00;100637.81;4931340;29;20540;-37
2024/01/19 04:57:34;;;;;;;25.27;23.30;;;;;;;-0.86;100.00;100645.03;4931395;29;20528;-36
2024/01/19 05:00:04;;;;;;;23.23;21.40;;;;;;;-0.78;100.00;100647.03;4931656;29;20444;-37
2024/01/19 05:02:32;;;;;;;25.43;22.80;;;;;;;-0.73;100.00;100656.16;4930831;28;20472;-37
2024/01/19 05:05:01;;;;;;;23.73;21.77;;;;;;;-0.69;100.00;100652.31;4930662;29;20437;-36
2024/01/19 05:07:28;;;;;;;22.67;21.10;;;;;;;-0.71;100.00;100654.25;4931499;29;20443;-38
2024/01/19 05:09:57;;;;;;;22.20;20.90;;;;;;;-0.73;100.00;100666.66;4931528;29;20437;-37
2024/01/19 05:12:25;;;;;;;22.80;21.23;;;;;;;-0.78;100.00;100662.75;4923022;29;20468;-37
2024/01/19 05:14:52;;;;;;;24.43;22.50;;;;;;;-0.84;100.00;100677.16;4931398;29;20964;-37
2024/01/19 05:17:22;;;;;;;23.70;21.80;;;;;;;-0.87;100.00;100681.81;4930356;29;20484;-37
2024/01/19 05:19:50;;;;;;;23.20;21.60;;;;;;;-0.86;100.00;100686.91;4931001;29;20940;-36
2024/01/19 05:22:18;;;;;;;22.83;21.40;;;;;;;-0.86;100.00;100681.69;4930084;28;20508;-36
2024/01/19 05:24:46;;;;;;;22.53;20.67;;;;;;;-0.87;100.00;100690.50;4930997;29;20437;-37
2024/01/19 05:27:13;;;;;;;22.90;21.30;;;;;;;-0.93;100.00;100698.88;4930855;29;20443;-37
2024/01/19 05:29:41;;;;;;;21.93;20.53;;;;;;;-0.94;100.00;100705.03;4930768;29;20441;-36
2024/01/19 05:32:10;;;;;;;22.73;21.43;;;;;;;-0.96;100.00;100713.97;4929829;28;21027;-38
2024/01/19 05:34:39;;;;;;;24.13;21.80;;;;;;;-1.02;100.00;100706.63;4931113;29;20472;-36
2024/01/19 05:37:08;;;;;;;22.70;21.30;;;;;;;-1.04;100.00;100713.75;4930869;29;20731;-36
2024/01/19 05:39:36;;;;;;;23.00;21.60;;;;;;;-1.08;100.00;100714.97;4930855;29;20547;-37
2024/01/19 05:42:04;;;;;;;23.40;21.60;;;;;;;-1.14;100.00;100716.28;4930454;28;20464;-37
2024/01/19 05:44:32;;;;;;;23.57;21.90;;;;;;;-1.17;100.00;100721.75;4930992;29;20576;-36
2024/01/19 05:47:00;;;;;;;24.30;22.40;;;;;;;-1.19;100.00;100734.13;4931206;29;20449;-37
2024/01/19 05:49:28;;;;;;;22.10;20.50;;;;;;;-1.19;100.00;100728.88;4930751;29;20471;-37
2024/01/19 05:51:57;;;;;;;22.90;21.27;;;;;;;-1.17;100.00;100727.00;4930162;28;20610;-39
2024/01/19 05:54:24;;;;;;;24.03;22.90;;;;;;;-1.16;100.00;100726.03;4930672;29;20563;-37
2024/01/19 05:56:52;;;;;;;22.60;21.30;;;;;;;-1.15;100.00;100743.41;4931155;29;20444;-37
2024/01/19 05:59:20;;;;;;;23.20;21.70;;;;;;;-1.14;100.00;100750.31;4930831;29;20953;-36
2024/01/19 06:01:48;;;;;;;24.20;22.50;;;;;;;-1.11;100.00;100752.69;4929926;28;20533;-36
2024/01/19 06:04:15;;;;;;;23.50;22.30;;;;;;;-1.10;100.00;100759.56;4930797;29;20483;-39
2024/01/19 06:06:43;;;;;;;24.17;22.87;;;;;;;-1.09;100.00;100760.38;4930581;29;20437;-37
2024/01/19 06:09:12;;;;;;;23.60;22.43;;;;;;;-1.09;100.00;100770.88;4930839;29;20836;-37
2024/01/19 06:11:40;;;;;;;24.43;23.13;;;;;;;-1.14;100.00;100774.69;4929769;28;20468;-40
2024/01/19 06:14:07;;;;;;;24.90;22.80;;;;;;;-1.15;100.00;100778.25;4934833;29;20880;-38
2024/01/19 06:16:38;;;;;;;23.37;22.13;;;;;;;-1.13;100.00;100796.44;4931094;29;20433;-37
2024/01/19 06:19:06;;;;;;;23.93;22.50;;;;;;;-1.10;100.00;100790.97;4930850;29;20472;-37
2024/01/19 06:21:34;;;;;;;23.10;21.80;;;;;;;-1.00;100.00;100796.31;4930814;28;20492;-37
2024/01/19 06:24:01;;;;;;;23.53;21.77;;;;;;;-0.97;100.00;100803.91;4930751;29;20495;-37
2024/01/19 06:26:32;;;;;;;23.83;22.23;;;;;;;-0.94;100.00;100806.28;4930696;29;20444;-37
2024/01/19 06:29:00;;;;;;;22.53;21.17;;;;;;;-0.89;100.00;100804.13;4933153;29;20816;-37
2024/01/19 06:31:28;;;;;;;22.47;21.30;;;;;;;-0.90;100.00;100805.94;4932660;28;21247;-37
2024/01/19 06:33:56;;;;;;;24.30;22.77;;;;;;;-0.89;100.00;100809.38;4933981;29;20477;-37
2024/01/19 06:36:23;;;;;;;22.10;20.67;;;;;;;-0.90;100.00;100815.56;4933988;29;20881;-38
2024/01/19 06:38:54;;;;;;;23.50;22.50;;;;;;;-0.92;100.00;100825.31;4933985;29;20526;-37
2024/01/19 06:41:22;;;;;;;23.27;21.87;;;;;;;-1.00;100.00;100825.94;4933874;28;20968;-37
2024/01/19 06:43:51;;;;;;;22.90;22.00;;;;;;;-1.03;100.00;100831.41;4933210;29;20464;-37
2024/01/19 06:46:19;;;;;;;24.70;22.70;;;;;;;-1.04;100.00;100845.44;4934031;29;20940;-37
2024/01/19 06:48:47;;;;;;;22.63;21.63;;;;;;;-1.13;100.00;100854.84;4933948;29;20523;-37
2024/01/19 06:51:17;;;;;;;23.57;21.63;;;;;;;-1.14;100.00;100854.97;4932824;28;20469;-36
2024/01/19 06:53:44;;;;;;;22.70;21.50;;;;;;;-1.15;100.00;100862.00;4934022;29;20460;-37
2024/01/19 06:56:12;;;;;;;23.80;22.43;;;;;;;-1.19;100.00;100884.09;4933711;29;20900;-36
2024/01/19 06:58:40;;;;;;;23.97;22.57;;;;;;;-1.21;100.00;100874.72;4934092;29;20433;-37
2024/01/19 07:01:09;;;;;;;22.93;20.83;;;;;;;-1.21;100.00;100879.94;4932581;28;20436;-37
2024/01/19 07:03:36;;;;;;;21.90;20.83;;;;;;;-1.23;100.00;100874.84;4933601;29;20813;-36
2024/01/19 07:06:04;;;;;;;22.27;21.10;;;;;;;-1.27;100.00;100877.78;4933666;29;20451;-37
2024/01/19 07:08:32;;;;;;;24.57;23.17;;;;;;;-1.33;100.00;100881.72;4933533;29;20432;-36
2024/01/19 07:11:00;;;;;;;24.63;22.87;;;;;;;-1.36;100.00;100888.97;4933115;28;21001;-37
2024/01/19 07:13:28;;;;;;;25.17;23.37;;;;;;;-1.42;100.00;100887.66;4933338;29;20479;-37
2024/01/19 07:15:56;;;;;;;23.90;22.80;;;;;;;-1.45;100.00;100887.03;4925809;29;20804;-37
2024/01/19 07:18:24;;;;;;;24.67;23.23;;;;;;;-1.48;100.00;100902.97;4925583;29;20444;-37
2024/01/19 07:20:52;;;;;;;25.30;23.73;;;;;;;-1.49;100.00;100903.94;4932745;28;20441;-37
2024/01/19 07:23:20;;;;;;;27.67;24.93;;;;;;;-1.49;100.00;100898.69;4933262;29;20461;-37
2024/01/19 07:25:48;;;;;;;26.20;24.40;;;;;;;-1.44;100.00;100901.78;4933771;29;20437;-37
2024/01/19 07:28:16;;;;;;;25.23;23.80;;;;;;;-1.35;100.00;100912.41;4933006;29;20468;-37
2024/01/19 07:30:43;;;;;;;23.97;22.63;;;;;;;-1.22;100.00;100918.34;4932904;29;20443;-36
2024/01/19 07:33:11;;;;;;;23.73;22.20;;;;;;;-1.08;100.00;100919.94;4932474;28;20479;-37
2024/01/19 07:35:53;;;;;;;23.67;22.17;;;;;;;-0.84;100.00;100917.19;4933086;29;20448;-36
2024/01/19 07:38:21;;;;;;;23.90;22.00;;;;;;;-0.78;100.00;100922.78;4933206;29;20441;-36
2024/01/19 07:40:49;;;;;;;22.33;21.13;;;;;;;-0.77;100.00;100923.59;4931820;29;20488;-37
2024/01/19 07:43:17;;;;;;;22.23;20.83;;;;;;;-0.81;100.00;100927.44;4932424;29;20465;-39
2024/01/19 07:45:44;;;;;;;23.23;21.57;;;;;;;-0.90;100.00;100930.75;4932982;29;20806;-36
2024/01/19 07:48:12;;;;;;;24.10;22.70;;;;;;;-1.00;100.00;100941.09;4932575;29;20932;-37
2024/01/19 07:50:40;;;;;;;24.53;22.77;;;;;;;-1.06;100.00;100932.88;4932631;29;20531;-37
2024/01/19 07:53:10;;;;;;;24.83;23.13;;;;;;;-1.10;100.00;100937.50;4932443;28;21147;-37
2024/01/19 07:55:37;;;;;;;24.00;22.70;;;;;;;-1.09;100.00;100943.59;4932861;29;20441;-37
2024/01/19 07:58:05;;;;;;;26.07;23.97;;;;;;;-1.06;100.00;100948.59;4932943;29;20440;-37
2024/01/19 08:00:33;;;;;;;25.60;23.77;;;;;;;-1.05;100.00;100947.66;4932541;29;20444;-37
2024/01/19 08:03:00;;;;;;;25.60;23.90;;;;;;;-1.01;100.00;100960.38;4932098;28;20492;-37
2024/01/19 08:05:28;;;;;;;24.87;23.00;;;;;;;-1.00;100.00;100951.56;4932801;29;20429;-38
2024/01/19 08:07:56;;;;;;;25.10;23.80;;;;;;;-0.99;100.00;100952.41;4932144;29;20440;-36
2024/01/19 08:10:25;;;;;;;24.60;22.80;;;;;;;-0.97;100.00;100956.56;4932584;29;20436;-37
2024/01/19 08:12:53;;;;;;;25.13;22.97;;;;;;;-0.90;100.00;100968.25;4931375;28;20484;-36
2024/01/19 08:15:20;;;;;;;23.07;22.00;;;;;;;-0.84;100.00;100964.31;4931719;29;20445;-37
2024/01/19 08:17:48;;;;;;;24.23;22.93;;;;;;;-0.75;100.00;100968.84;4932586;29;20441;-37
2024/01/19 08:20:16;;;;;;;23.70;22.50;;;;;;;-0.68;100.00;100968.25;4933209;29;20443;-39
2024/01/19 08:22:44;;;;;;;23.60;22.40;;;;;;;-0.53;100.00;100974.06;4931849;28;20701;-37
2024/01/19 08:25:11;;;;;;;23.60;22.00;;;;;;;-0.39;100.00;100975.63;4932761;29;20582;-36
2024/01/19 08:27:42;;;;;;;24.10;22.67;;;;;;;-0.29;100.00;100977.38;4932578;29;20440;-37
2024/01/19 08:30:11;;;;;;;24.77;22.70;;;;;;;-0.18;100.00;100979.16;4933534;29;20461;-37
2024/01/19 08:32:39;;;;;;;24.43;23.07;;;;;;;-0.09;100.00;100983.69;4932450;28;20814;-37
2024/01/19 08:35:09;;;;;;;24.43;22.63;;;;;;;-0.03;100.00;100986.63;4932339;29;20532;-37
2024/01/19 08:37:37;;;;;;;25.80;23.93;;;;;;;0.03;100.00;100987.91;4924514;29;20468;-37
2024/01/19 08:40:06;;;;;;;25.63;23.97;;;;;;;0.09;100.00;100990.03;4931662;29;20994;-38
2024/01/19 08:42:34;;;;;;;25.27;23.67;;;;;;;0.17;100.00;100992.91;4923540;29;20479;-37
2024/01/19 08:45:05;;;;;;;24.17;22.57;;;;;;;0.28;100.00;101002.50;4931834;29;20441;-36
2024/01/19 08:47:33;;;;;;;26.20;23.80;;;;;;;0.32;100.00;100996.91;4934016;29;20464;-36
2024/01/19 08:50:01;;;;;;;24.33;22.97;;;;;;;0.44;100.00;100998.53;4932785;29;20967;-36
2024/01/19 08:52:30;;;;;;;24.10;22.27;;;;;;;0.60;100.00;100994.66;4932449;28;20512;-36
2024/01/19 08:54:58;;;;;;;23.73;22.00;;;;;;;0.85;100.00;101000.34;4934322;29;20524;-35
2024/01/19 08:57:25;;;;;;;27.07;24.97;;;;;;;1.13;100.00;100998.88;4932649;29;20873;-36
2024/01/19 08:59:53;;;;;;;24.97;22.60;;;;;;;1.40;100.00;101011.47;4932859;29;20441;-38
2024/01/19 09:02:22;;;;;;;23.43;21.57;;;;;;;1.70;100.00;101007.97;4930671;28;20465;-37
2024/01/19 09:04:53;;;;;;;23.03;21.53;;;;;;;1.83;100.00;101011.19;4931747;29;20446;-37
2024/01/19 09:07:21;;;;;;;24.43;22.77;;;;;;;2.03;100.00;100997.16;4932180;29;20885;-37
2024/01/19 09:09:49;;;;;;;23.37;22.17;;;;;;;2.18;100.00;100993.97;4933547;29;20448;-36
2024/01/19 09:12:17;;;;;;;25.43;23.27;;;;;;;2.27;100.00;100992.31;4932002;28;20575;-37
2024/01/19 09:14:44;;;;;;;23.00;21.80;;;;;;;2.51;100.00;101005.09;4933458;29;20452;-36
2024/01/19 09:17:12;;;;;;;26.43;24.57;;;;;;;2.65;100.00;101000.25;4931788;29;20495;-36
2024/01/19 09:19:42;;;;;;;24.07;22.63;;;;;;;2.86;100.00;101001.88;4932340;29;20456;-38
2024/01/19 09:22:10;;;;;;;24.03;22.70;;;;;;;2.97;100.00;100999.91;4931062;28;20541;-36
2024/01/19 09:24:37;;;;;;;25.10;23.43;;;;;;;3.11;100.00;101001.25;4931163;29;20443;-37
2024/01/19 09:27:05;;;;;;;24.57;23.20;;;;;;;3.14;100.00;101004.44;4931704;29;20527;-36
2024/01/19 09:29:33;;;;;;;24.80;23.40;;;;;;;3.23;100.00;101013.31;4931720;29;20864;-36
2024/01/19 09:32:01;;;;;;;25.63;24.20;;;;;;;3.23;100.00;101018.56;4932165;28;20465;-38
2024/01/19 09:34:28;;;;;;;24.23;22.70;;;;;;;3.23;100.00;101027.31;4931134;29;20990;-36
2024/01/19 09:36:57;;;;;;;23.10;22.00;;;;;;;3.19;100.00;101030.38;4931768;29;20436;-36
2024/01/19 09:39:25;;;;;;;24.60;23.10;;;;;;;3.21;100.00;101033.72;4931825;29;20468;-36
2024/01/19 09:42:03;;;;;;;25.03;23.50;;;;;;;3.17;100.00;101033.16;4931874;28;20552;-36
2024/01/19 09:44:35;;;;;;;25.80;24.33;;;;;;;3.24;100.00;101050.06;4931655;29;20468;-38
2024/01/19 09:47:17;;;;;;;25.50;23.70;;;;;;;3.27;100.00;101044.53;4932509;29;20429;-37
2024/01/19 09:50:01;;;;;;;26.67;25.03;;;;;;;3.34;100.00;101048.22;4924735;29;20440;-37
2024/01/19 09:52:42;;;;;;;25.30;23.87;;;;;;;3.43;100.00;101053.63;4931578;28;20467;-36
2024/01/19 09:55:11;;;;;;;25.23;23.73;;;;;;;3.49;100.00;101053.91;4937404;29;20746;-37
2024/01/19 09:57:46;;;;;;;25.07;23.80;;;;;;;3.57;100.00;101055.81;4925606;29;20540;-37
2024/01/19 10:00:15;;;;;;;24.73;23.47;;;;;;;3.68;100.00;101053.81;4932181;29;20464;-37
2024/01/19 10:02:45;;;;;;;25.67;23.90;;;;;;;3.67;100.00;101061.91;4931827;28;20472;-41
2024/01/19 10:05:13;;;;;;;24.40;23.20;;;;;;;3.58;100.00;101071.50;4932383;29;20516;-36
2024/01/19 10:07:44;;;;;;;26.33;24.80;;;;;;;3.44;100.00;101064.03;4933193;29;20544;-36
2024/01/19 10:10:12;;;;;;;25.17;23.87;;;;;;;3.27;100.00;101076.16;4932747;29;20436;-37
2024/01/19 10:12:40;;;;;;;25.27;24.07;;;;;;;3.25;100.00;101080.75;4931580;28;20476;-37
2024/01/19 10:15:11;;;;;;;24.40;23.30;;;;;;;3.40;100.00;101077.66;4931888;29;20440;-36
2024/01/19 10:17:40;;;;;;;26.90;24.93;;;;;;;3.46;100.00;101091.09;4931497;29;20437;-36
2024/01/19 10:20:12;;;;;;;25.30;23.90;;;;;;;3.49;100.00;101082.91;4932241;29;20433;-36
2024/01/19 10:22:40;;;;;;;27.10;25.10;;;;;;;3.58;100.00;101083.84;4922559;29;20520;-37
2024/01/19 10:25:10;;;;;;;24.97;23.47;;;;;;;3.57;100.00;101090.09;4930184;29;20476;-36
2024/01/19 10:27:44;;;;;;;26.17;24.50;;;;;;;3.41;100.00;101101.22;4931040;29;20439;-37
2024/01/19 10:30:14;;;;;;;26.50;24.20;;;;;;;3.46;100.00;101096.38;4931103;29;20444;-37
2024/01/19 10:32:44;;;;;;;24.67;23.27;;;;;;;3.39;100.00;101092.63;4929680;28;20681;-36
2024/01/19 10:35:14;;;;;;;26.40;24.40;;;;;;;3.47;100.00;101092.75;4930503;29;20444;-36
2024/01/19 10:37:42;;;;;;;24.63;23.10;;;;;;;3.45;100.00;101093.88;4930683;29;20865;-40
2024/01/19 10:40:21;;;;;;;24.70;23.27;;;;;;;3.37;100.00;101102.50;4930147;29;20439;-36
2024/01/19 10:42:50;;;;;;;26.73;24.77;;;;;;;3.35;100.00;101096.50;4929118;28;20890;-39
2024/01/19 10:45:20;;;;;;;26.67;25.10;;;;;;;3.17;100.00;101112.22;4929687;29;20479;-36
2024/01/19 10:47:50;;;;;;;27.40;25.60;;;;;;;3.00;100.00;101122.63;4930895;29;20448;-36
2024/01/19 10:50:19;;;;;;;24.23;22.80;;;;;;;2.83;100.00;101120.69;4930971;29;20443;-38
2024/01/19 10:52:51;;;;;;;23.83;22.57;;;;;;;2.81;100.00;101120.81;4931020;28;20468;-36
2024/01/19 10:55:22;;;;;;;24.93;23.57;;;;;;;2.83;100.00;101113.63;4930000;29;20437;-38
2024/01/19 10:57:53;;;;;;;24.80;23.40;;;;;;;2.72;100.00;101105.81;4930774;29;20424;-38
2024/01/19 11:00:25;;;;;;;23.50;22.20;;;;;;;2.58;100.00;101109.69;4930238;29;20445;-36
2024/01/19 11:02:55;;;;;;;22.77;21.80;;;;;;;2.50;100.00;101109.56;4930060;28;20504;-39
2024/01/19 11:05:23;;;;;;;22.60;21.60;;;;;;;2.45;100.00;101109.09;4929802;29;20468;-36
2024/01/19 11:07:53;;;;;;;22.90;21.93;;;;;;;2.48;100.00;101116.72;4929974;29;20444;-35
2024/01/19 11:10:23;;;;;;;24.47;22.70;;;;;;;2.60;100.00;101115.66;4930799;29;20433;-36